Time;durP1;ratioP1;P1;durP2;ratioP2;P2;SDS_P1;SDS_P2;PMS_P1;PMS_P2;Temp;Humidity;BMP_temperature;BMP_pressure;BME280_temperature;BME280_humidity;BME280_pressure;Samples;Min_cycle;Max_cycle;Signal;HPM_P1;HPM_P2
2023/07/20 00:01:13;;;;;;;2.17;1.55;;;;;;;;;;5068286;28;20486;-70
2023/07/20 00:03:39;;;;;;;2.97;1.60;;;;;;;;;;5053322;28;20029;-70
2023/07/20 00:06:04;;;;;;;3.03;1.65;;;;;;;;;;5054975;28;20020;-70
2023/07/20 00:08:29;;;;;;;1.83;1.55;;;;;;;;;;5054951;28;20056;-70
2023/07/20 00:10:55;;;;;;;3.15;1.63;;;;;;;;;;5053104;28;20425;-70
2023/07/20 00:13:20;;;;;;;2.08;1.63;;;;;;;;;;5054600;28;20490;-70
2023/07/20 00:15:46;;;;;;;1.95;1.52;;;;;;;;;;5054941;28;20055;-70
2023/07/20 00:18:11;;;;;;;4.10;1.80;;;;;;;;;;5054939;28;20024;-70
2023/07/20 00:20:36;;;;;;;1.85;1.58;;;;;;;;;;5054882;28;20024;-70
2023/07/20 00:23:02;;;;;;;1.80;1.30;;;;;;;;;;5053796;28;20452;-70
2023/07/20 00:25:27;;;;;;;2.03;1.40;;;;;;;;;;5054606;28;20120;-70
2023/07/20 00:27:53;;;;;;;1.60;1.30;;;;;;;;;;5055059;28;20021;-70
2023/07/20 00:30:18;;;;;;;1.80;1.42;;;;;;;;;;5074493;28;20054;-70
2023/07/20 00:32:44;;;;;;;3.05;1.95;;;;;;;;;;5072436;28;20027;-70
2023/07/20 00:35:10;;;;;;;2.20;1.27;;;;;;;;;;5073134;28;20024;-70
2023/07/20 00:37:36;;;;;;;3.25;1.50;;;;;;;;;;5073074;28;20021;-70
2023/07/20 00:40:04;;;;;;;2.78;2.08;;;;;;;;;;5073954;28;20105;-70
2023/07/20 00:42:29;;;;;;;2.05;1.60;;;;;;;;;;5073465;28;20040;-70
2023/07/20 00:44:54;;;;;;;3.45;2.10;;;;;;;;;;5073967;28;20025;-70
2023/07/20 00:47:20;;;;;;;2.92;1.65;;;;;;;;;;5071851;28;20025;-70
2023/07/20 00:49:46;;;;;;;2.50;1.92;;;;;;;;;;5057982;28;20106;-69
2023/07/20 00:52:14;;;;;;;5.25;2.05;;;;;;;;;;5063361;28;20529;-70
2023/07/20 00:54:40;;;;;;;1.95;1.52;;;;;;;;;;5063114;28;20048;-70
2023/07/20 00:57:07;;;;;;;2.60;1.88;;;;;;;;;;5073816;28;20119;-70
2023/07/20 00:59:32;;;;;;;2.97;2.17;;;;;;;;;;5073703;28;20043;-70
2023/07/20 01:01:58;;;;;;;4.30;2.28;;;;;;;;;;5072262;28;20095;-70
2023/07/20 01:04:23;;;;;;;2.97;2.17;;;;;;;;;;5073663;28;20393;-70
2023/07/20 01:06:55;;;;;;;2.60;1.60;;;;;;;;;;5072723;28;20477;-70
2023/07/20 01:09:27;;;;;;;2.63;1.88;;;;;;;;;;5072398;28;20039;-70
2023/07/20 01:12:06;;;;;;;3.75;2.00;;;;;;;;;;5072555;28;20032;-70
2023/07/20 01:14:32;;;;;;;2.42;1.73;;;;;;;;;;5071303;28;20513;-70
2023/07/20 01:16:58;;;;;;;4.40;2.30;;;;;;;;;;5072081;28;20020;-70
2023/07/20 01:19:23;;;;;;;2.60;1.85;;;;;;;;;;5073686;28;20042;-70
2023/07/20 01:21:56;;;;;;;2.63;2.08;;;;;;;;;;5073044;28;20016;-70
2023/07/20 01:24:32;;;;;;;2.75;2.20;;;;;;;;;;5073822;28;20374;-70
2023/07/20 01:27:10;;;;;;;2.55;1.65;;;;;;;;;;5071995;28;20025;-70
2023/07/20 01:29:49;;;;;;;5.47;2.45;;;;;;;;;;5073002;28;20074;-70
2023/07/20 01:32:16;;;;;;;3.33;2.05;;;;;;;;;;5071941;28;20050;-70
2023/07/20 01:34:42;;;;;;;2.67;1.73;;;;;;;;;;5072050;28;20081;-70
2023/07/20 01:37:08;;;;;;;2.97;2.10;;;;;;;;;;5071971;28;20020;-70
2023/07/20 01:39:34;;;;;;;2.72;2.17;;;;;;;;;;5071912;28;20036;-70
2023/07/20 01:42:00;;;;;;;2.45;1.90;;;;;;;;;;5071412;28;20021;-70
2023/07/20 01:44:25;;;;;;;2.67;1.85;;;;;;;;;;5072640;28;20029;-70
2023/07/20 01:46:50;;;;;;;3.13;2.05;;;;;;;;;;5073106;28;20021;-70
2023/07/20 01:49:15;;;;;;;16.92;2.63;;;;;;;;;;5072388;28;20020;-70
2023/07/20 01:51:41;;;;;;;2.45;1.83;;;;;;;;;;5073101;28;20466;-70
2023/07/20 01:54:06;;;;;;;2.72;2.03;;;;;;;;;;5068207;28;20107;-70
2023/07/20 01:56:31;;;;;;;2.47;1.95;;;;;;;;;;5053067;28;20375;-70
2023/07/20 01:58:56;;;;;;;2.40;1.85;;;;;;;;;;5051399;28;20425;-70
2023/07/20 02:01:22;;;;;;;3.00;2.15;;;;;;;;;;5052348;28;20033;-70
2023/07/20 02:03:47;;;;;;;2.92;2.15;;;;;;;;;;5063585;28;20036;-70
2023/07/20 02:06:12;;;;;;;4.25;1.90;;;;;;;;;;5072714;28;20047;-70
2023/07/20 02:08:38;;;;;;;5.40;2.53;;;;;;;;;;5068077;28;20032;-70
2023/07/20 02:11:04;;;;;;;2.80;2.20;;;;;;;;;;5067939;28;20546;-70
2023/07/20 02:13:29;;;;;;;3.00;2.20;;;;;;;;;;5147356;22;20092;-72
2023/07/20 02:15:55;;;;;;;4.25;2.88;;;;;;;;;;5072814;28;20124;-72
2023/07/20 02:18:20;;;;;;;4.88;3.05;;;;;;;;;;5054753;28;20013;-72
2023/07/20 02:20:45;;;;;;;3.88;2.75;;;;;;;;;;5072296;28;20032;-72
2023/07/20 02:23:11;;;;;;;2.80;1.85;;;;;;;;;;5072532;28;20056;-73
2023/07/20 02:25:36;;;;;;;4.13;3.08;;;;;;;;;;5072558;28;20017;-72
2023/07/20 02:28:02;;;;;;;4.22;2.55;;;;;;;;;;5075459;28;20422;-72
2023/07/20 02:30:27;;;;;;;4.13;2.53;;;;;;;;;;5058139;28;20032;-72
2023/07/20 02:32:53;;;;;;;5.13;3.08;;;;;;;;;;5076675;28;20020;-72
2023/07/20 02:35:18;;;;;;;4.55;2.65;;;;;;;;;;5076276;28;20050;-72
2023/07/20 02:37:43;;;;;;;5.72;3.13;;;;;;;;;;5076630;28;20393;-72
2023/07/20 02:40:09;;;;;;;3.97;3.05;;;;;;;;;;5076393;28;20374;-72
2023/07/20 02:42:35;;;;;;;3.85;2.42;;;;;;;;;;5058288;28;20504;-72
2023/07/20 02:45:02;;;;;;;3.35;2.70;;;;;;;;;;5058022;28;20021;-72
2023/07/20 02:47:28;;;;;;;7.72;2.85;;;;;;;;;;5075832;28;20027;-72
2023/07/20 02:49:54;;;;;;;6.25;2.85;;;;;;;;;;5058596;28;20032;-72
2023/07/20 02:52:19;;;;;;;3.28;2.83;;;;;;;;;;5057724;28;20029;-72
2023/07/20 02:54:44;;;;;;;4.00;2.55;;;;;;;;;;5057653;28;20396;-72
2023/07/20 02:57:09;;;;;;;3.97;2.80;;;;;;;;;;5075868;28;20026;-72
2023/07/20 02:59:35;;;;;;;3.55;2.83;;;;;;;;;;5058134;28;20101;-71
2023/07/20 03:02:00;;;;;;;4.55;2.40;;;;;;;;;;5075949;28;20028;-72
2023/07/20 03:04:26;;;;;;;4.65;2.78;;;;;;;;;;5057966;28;20043;-72
2023/07/20 03:06:51;;;;;;;7.05;3.03;;;;;;;;;;5057724;28;20067;-72
2023/07/20 03:09:17;;;;;;;3.35;2.45;;;;;;;;;;5054467;28;20519;-72
2023/07/20 03:11:42;;;;;;;3.47;2.33;;;;;;;;;;5038133;28;20029;-72
2023/07/20 03:14:07;;;;;;;3.85;2.33;;;;;;;;;;5037599;28;20029;-72
2023/07/20 03:16:33;;;;;;;3.05;2.28;;;;;;;;;;5057371;28;20012;-72
2023/07/20 03:19:00;;;;;;;3.60;2.05;;;;;;;;;;5075519;28;20127;-72
2023/07/20 03:21:25;;;;;;;2.80;2.30;;;;;;;;;;5057435;28;20020;-72
2023/07/20 03:23:51;;;;;;;3.83;2.60;;;;;;;;;;5057612;28;20024;-72
2023/07/20 03:26:16;;;;;;;5.50;2.58;;;;;;;;;;5057507;28;20016;-72
2023/07/20 03:28:41;;;;;;;3.13;2.33;;;;;;;;;;5075536;28;20110;-72
2023/07/20 03:31:07;;;;;;;3.47;2.33;;;;;;;;;;5074854;28;20027;-72
2023/07/20 03:33:33;;;;;;;3.78;2.80;;;;;;;;;;5075441;28;20031;-72
2023/07/20 03:35:58;;;;;;;3.92;2.20;;;;;;;;;;5057142;28;20024;-72
2023/07/20 03:38:24;;;;;;;4.38;2.50;;;;;;;;;;5056303;28;20031;-72
2023/07/20 03:40:54;;;;;;;2.80;1.95;;;;;;;;;;5075170;28;20023;-72
2023/07/20 03:43:20;;;;;;;3.33;2.22;;;;;;;;;;5056895;28;20028;-72
2023/07/20 03:45:45;;;;;;;4.78;2.10;;;;;;;;;;5039340;28;20371;-72
2023/07/20 03:48:11;;;;;;;2.75;2.20;;;;;;;;;;5037545;28;20052;-72
2023/07/20 03:50:37;;;;;;;4.82;2.35;;;;;;;;;;5037474;28;20021;-72
2023/07/20 03:53:02;;;;;;;3.90;2.42;;;;;;;;;;5036436;28;20016;-72
2023/07/20 03:55:28;;;;;;;3.83;2.45;;;;;;;;;;5069596;28;20034;-72
2023/07/20 03:57:53;;;;;;;5.03;2.10;;;;;;;;;;5057236;28;20020;-72
2023/07/20 04:00:18;;;;;;;3.97;2.58;;;;;;;;;;5057263;28;20029;-72
2023/07/20 04:02:44;;;;;;;3.63;2.72;;;;;;;;;;5054385;28;20021;-72
2023/07/20 04:05:09;;;;;;;3.20;2.45;;;;;;;;;;5054863;28;20074;-72
2023/07/20 04:07:34;;;;;;;15.25;3.65;;;;;;;;;;5054876;28;20021;-72
2023/07/20 04:09:59;;;;;;;5.60;3.00;;;;;;;;;;5057118;28;20021;-72
2023/07/20 04:12:25;;;;;;;3.47;2.80;;;;;;;;;;5074627;28;20412;-72
2023/07/20 04:14:50;;;;;;;4.57;3.28;;;;;;;;;;5056150;28;20035;-72
2023/07/20 04:17:15;;;;;;;6.72;3.55;;;;;;;;;;5074541;28;20028;-72
2023/07/20 04:19:41;;;;;;;8.05;3.50;;;;;;;;;;5074464;28;20103;-72
2023/07/20 04:22:06;;;;;;;7.90;3.33;;;;;;;;;;5056932;28;20523;-72
2023/07/20 04:24:31;;;;;;;6.72;3.05;;;;;;;;;;5071554;28;20035;-72
2023/07/20 04:26:56;;;;;;;7.90;3.58;;;;;;;;;;5056776;28;20017;-72
2023/07/20 04:29:22;;;;;;;7.90;3.10;;;;;;;;;;5052413;28;20085;-72
2023/07/20 04:31:47;;;;;;;12.23;3.75;;;;;;;;;;5063782;28;20039;-72
2023/07/20 04:34:12;;;;;;;8.63;3.92;;;;;;;;;;5074110;28;20031;-72
2023/07/20 04:36:38;;;;;;;12.25;3.75;;;;;;;;;;5071021;28;20131;-70
2023/07/20 04:39:04;;;;;;;16.52;3.78;;;;;;;;;;5054700;28;20023;-70
2023/07/20 04:41:30;;;;;;;9.02;4.88;;;;;;;;;;5036033;28;20043;-70
2023/07/20 04:43:55;;;;;;;6.95;2.88;;;;;;;;;;5054156;28;20486;-70
2023/07/20 04:46:21;;;;;;;4.70;2.88;;;;;;;;;;5053821;28;20128;-70
2023/07/20 04:48:47;;;;;;;10.05;3.13;;;;;;;;;;5044468;28;20032;-70
2023/07/20 04:51:13;;;;;;;7.75;2.60;;;;;;;;;;5051816;28;20021;-70
2023/07/20 04:53:38;;;;;;;6.47;2.95;;;;;;;;;;5053749;28;20485;-70
2023/07/20 04:56:03;;;;;;;8.52;2.88;;;;;;;;;;5053964;28;20481;-70
2023/07/20 04:58:29;;;;;;;7.05;2.92;;;;;;;;;;5055936;28;20012;-70
2023/07/20 05:00:54;;;;;;;4.75;2.65;;;;;;;;;;5073116;28;20485;-70
2023/07/20 05:03:19;;;;;;;6.90;2.42;;;;;;;;;;5073397;28;20016;-70
2023/07/20 05:05:46;;;;;;;5.95;2.95;;;;;;;;;;5073544;28;20032;-70
2023/07/20 05:08:11;;;;;;;4.97;2.83;;;;;;;;;;5073483;28;20016;-70
2023/07/20 05:10:36;;;;;;;7.55;3.40;;;;;;;;;;5055849;28;20032;-70
2023/07/20 05:13:02;;;;;;;5.90;2.83;;;;;;;;;;5055146;28;20483;-70
2023/07/20 05:15:27;;;;;;;6.97;3.22;;;;;;;;;;5073181;28;20562;-71
2023/07/20 05:17:52;;;;;;;6.57;3.00;;;;;;;;;;5055625;28;20361;-71
2023/07/20 05:20:18;;;;;;;9.45;3.80;;;;;;;;;;5055351;28;20016;-71
2023/07/20 05:22:43;;;;;;;11.32;3.63;;;;;;;;;;5073454;28;20394;-71
2023/07/20 05:25:10;;;;;;;8.05;2.95;;;;;;;;;;5072865;28;20107;-71
2023/07/20 05:27:39;;;;;;;5.18;2.70;;;;;;;;;;5054404;28;20109;-71
2023/07/20 05:30:07;;;;;;;8.98;2.53;;;;;;;;;;5055345;28;20044;-71
2023/07/20 05:32:32;;;;;;;7.18;2.85;;;;;;;;;;5054542;28;20039;-71
2023/07/20 05:34:58;;;;;;;10.35;4.53;;;;;;;;;;5055072;28;20431;-71
2023/07/20 05:37:23;;;;;;;5.03;3.20;;;;;;;;;;5049668;28;20024;-71
2023/07/20 05:39:48;;;;;;;7.43;3.40;;;;;;;;;;5034726;28;20056;-71
2023/07/20 05:42:14;;;;;;;7.00;3.33;;;;;;;;;;5059711;28;20020;-71
2023/07/20 05:44:40;;;;;;;6.57;3.30;;;;;;;;;;5073181;28;20462;-71
2023/07/20 05:47:06;;;;;;;7.50;3.15;;;;;;;;;;5072518;28;20470;-70
2023/07/20 05:49:31;;;;;;;8.65;2.03;;;;;;;;;;5038107;28;20031;-71
2023/07/20 05:51:56;;;;;;;8.95;2.75;;;;;;;;;;5072874;28;20032;-71
2023/07/20 05:54:23;;;;;;;5.32;2.13;;;;;;;;;;5073198;28;20055;-71
2023/07/20 05:56:49;;;;;;;4.10;2.30;;;;;;;;;;5054834;28;20027;-71
2023/07/20 05:59:14;;;;;;;3.75;1.98;;;;;;;;;;5055025;28;20028;-71
2023/07/20 06:01:39;;;;;;;5.32;1.95;;;;;;;;;;5071740;28;20032;-71
2023/07/20 06:04:05;;;;;;;5.75;2.30;;;;;;;;;;5072924;28;20059;-71
2023/07/20 06:06:30;;;;;;;5.93;2.30;;;;;;;;;;5054711;28;20024;-71
2023/07/20 06:08:55;;;;;;;5.63;1.73;;;;;;;;;;5072444;28;20032;-71
2023/07/20 06:11:20;;;;;;;7.88;1.60;;;;;;;;;;5072764;28;20021;-71
2023/07/20 06:13:46;;;;;;;8.00;2.20;;;;;;;;;;5070492;28;20507;-71
2023/07/20 06:16:11;;;;;;;8.27;1.95;;;;;;;;;;5053119;28;20028;-72
2023/07/20 06:18:36;;;;;;;4.82;2.47;;;;;;;;;;5051999;28;20013;-71
2023/07/20 06:21:02;;;;;;;6.65;2.08;;;;;;;;;;5052785;28;20040;-71
2023/07/20 06:23:27;;;;;;;5.50;1.90;;;;;;;;;;5034656;28;20040;-71
2023/07/20 06:25:52;;;;;;;7.43;2.25;;;;;;;;;;5060671;28;20020;-71
2023/07/20 06:28:19;;;;;;;5.85;1.75;;;;;;;;;;5054831;28;20070;-72
2023/07/20 06:30:44;;;;;;;4.97;1.73;;;;;;;;;;5071894;28;20108;-72
2023/07/20 06:33:10;;;;;;;4.30;2.00;;;;;;;;;;5038182;28;20122;-72
2023/07/20 06:35:35;;;;;;;3.85;2.03;;;;;;;;;;5054397;28;20435;-72
2023/07/20 06:38:03;;;;;;;6.57;2.45;;;;;;;;;;5054626;28;20025;-72
2023/07/20 06:40:30;;;;;;;4.50;1.70;;;;;;;;;;5054774;28;20504;-72
2023/07/20 06:42:55;;;;;;;5.63;1.80;;;;;;;;;;5054161;28;20039;-72
2023/07/20 06:45:21;;;;;;;1.35;1.02;;;;;;;;;;5054380;28;20593;-72
2023/07/20 06:47:46;;;;;;;5.43;1.23;;;;;;;;;;5072171;28;20035;-72
2023/07/20 06:50:11;;;;;;;5.13;1.40;;;;;;;;;;5054710;28;20032;-72
2023/07/20 06:52:37;;;;;;;5.50;1.63;;;;;;;;;;5053518;28;20104;-72
2023/07/20 06:55:02;;;;;;;3.55;1.38;;;;;;;;;;5072368;28;20052;-72
2023/07/20 06:57:28;;;;;;;2.50;1.38;;;;;;;;;;5072434;28;20362;-72
2023/07/20 06:59:53;;;;;;;2.42;1.80;;;;;;;;;;5054493;28;20021;-72
2023/07/20 07:02:18;;;;;;;2.58;1.30;;;;;;;;;;5072248;28;20482;-72
2023/07/20 07:04:45;;;;;;;3.92;1.73;;;;;;;;;;5053702;28;20013;-72
2023/07/20 07:07:10;;;;;;;4.82;1.50;;;;;;;;;;5072524;28;20029;-73
2023/07/20 07:09:35;;;;;;;4.38;1.48;;;;;;;;;;5072023;28;20103;-72
2023/07/20 07:12:01;;;;;;;3.42;1.50;;;;;;;;;;5054437;28;20024;-71
2023/07/20 07:14:26;;;;;;;5.88;1.70;;;;;;;;;;5074975;28;20024;-72
2023/07/20 07:16:51;;;;;;;3.80;1.27;;;;;;;;;;5056702;28;20470;-74
2023/07/20 07:19:17;;;;;;;6.28;2.00;;;;;;;;;;5057370;28;20634;-72
2023/07/20 07:21:42;;;;;;;6.05;1.65;;;;;;;;;;5056489;28;20385;-72
2023/07/20 07:24:09;;;;;;;4.45;1.58;;;;;;;;;;5037916;28;20031;-72
2023/07/20 07:26:35;;;;;;;3.50;1.20;;;;;;;;;;5055382;28;20032;-71
2023/07/20 07:29:00;;;;;;;2.90;1.27;;;;;;;;;;5055029;28;20112;-72
2023/07/20 07:31:26;;;;;;;3.78;1.23;;;;;;;;;;5055340;28;20025;-71
2023/07/20 07:33:51;;;;;;;2.10;1.65;;;;;;;;;;5055389;28;20473;-72
2023/07/20 07:36:16;;;;;;;3.00;1.40;;;;;;;;;;5054834;28;20021;-71
2023/07/20 07:38:42;;;;;;;1.67;1.33;;;;;;;;;;5055207;28;20052;-71
2023/07/20 07:41:07;;;;;;;6.00;1.48;;;;;;;;;;5021562;28;20075;-70
2023/07/20 07:43:33;;;;;;;1.95;1.25;;;;;;;;;;5065245;28;20082;-71
2023/07/20 07:45:58;;;;;;;2.05;1.17;;;;;;;;;;5075413;28;20028;-72
2023/07/20 07:48:25;;;;;;;4.57;1.30;;;;;;;;;;5074418;28;20036;-70
2023/07/20 07:50:50;;;;;;;4.32;1.13;;;;;;;;;;5075301;28;20052;-71
2023/07/20 07:53:15;;;;;;;3.53;1.02;;;;;;;;;;5074820;28;20493;-71
2023/07/20 07:55:41;;;;;;;4.05;1.40;;;;;;;;;;5057140;28;20024;-71
2023/07/20 07:58:06;;;;;;;3.33;1.00;;;;;;;;;;5057316;28;20013;-70
2023/07/20 08:00:31;;;;;;;1.13;0.93;;;;;;;;;;5074984;28;20028;-71
2023/07/20 08:02:57;;;;;;;2.38;0.90;;;;;;;;;;5074413;28;20024;-71
2023/07/20 08:05:22;;;;;;;3.67;1.45;;;;;;;;;;5056629;28;20169;-70
2023/07/20 08:07:47;;;;;;;1.65;0.93;;;;;;;;;;5057518;28;20036;-70
2023/07/20 08:10:13;;;;;;;1.65;0.80;;;;;;;;;;5039056;28;20054;-70
2023/07/20 08:12:38;;;;;;;2.10;1.13;;;;;;;;;;5051735;28;20029;-70
2023/07/20 08:15:04;;;;;;;3.33;1.13;;;;;;;;;;5083210;23;20052;-70
2023/07/20 08:17:29;;;;;;;2.95;1.35;;;;;;;;;;5074614;28;20453;-70
2023/07/20 08:19:54;;;;;;;2.95;1.08;;;;;;;;;;5070761;28;20032;-69
2023/07/20 08:22:19;;;;;;;2.70;1.02;;;;;;;;;;5058185;28;20030;-69
2023/07/20 08:24:45;;;;;;;4.82;1.30;;;;;;;;;;5064003;28;20017;-70
2023/07/20 08:27:10;;;;;;;2.47;1.13;;;;;;;;;;5074126;28;20055;-69
2023/07/20 08:29:36;;;;;;;3.65;1.40;;;;;;;;;;5073754;28;20099;-70
2023/07/20 08:32:03;;;;;;;3.13;1.35;;;;;;;;;;5056542;28;20033;-69
2023/07/20 08:34:28;;;;;;;4.80;1.50;;;;;;;;;;5074105;28;20023;-70
2023/07/20 08:36:53;;;;;;;2.25;1.15;;;;;;;;;;5074093;28;20021;-69
2023/07/20 08:39:19;;;;;;;3.30;1.25;;;;;;;;;;5073685;28;20047;-69
2023/07/20 08:41:44;;;;;;;3.80;1.52;;;;;;;;;;5074177;28;20417;-69
2023/07/20 08:44:10;;;;;;;3.67;1.20;;;;;;;;;;5073632;28;20397;-70
2023/07/20 08:46:38;;;;;;;5.95;1.45;;;;;;;;;;5074272;28;20032;-70
2023/07/20 08:49:03;;;;;;;3.90;1.65;;;;;;;;;;5055736;28;20028;-69
2023/07/20 08:51:30;;;;;;;6.15;1.60;;;;;;;;;;5056250;28;20362;-69
2023/07/20 08:53:55;;;;;;;6.72;2.08;;;;;;;;;;5073736;28;20544;-70
2023/07/20 08:56:21;;;;;;;5.18;1.48;;;;;;;;;;5073649;28;20111;-70
2023/07/20 08:58:47;;;;;;;6.82;2.55;;;;;;;;;;5039509;28;20024;-70
2023/07/20 09:01:12;;;;;;;8.48;2.00;;;;;;;;;;5073476;28;20024;-70
2023/07/20 09:03:39;;;;;;;8.02;1.92;;;;;;;;;;5073412;28;20109;-70
2023/07/20 09:06:05;;;;;;;4.90;1.73;;;;;;;;;;5066083;28;20052;-71
2023/07/20 09:08:30;;;;;;;3.67;1.58;;;;;;;;;;5036080;28;20394;-70
2023/07/20 09:10:56;;;;;;;8.48;2.15;;;;;;;;;;5060972;28;20029;-70
2023/07/20 09:13:21;;;;;;;7.03;2.00;;;;;;;;;;5055500;28;20037;-70
2023/07/20 09:15:47;;;;;;;8.48;2.15;;;;;;;;;;5069302;28;20021;-70
2023/07/20 09:18:23;;;;;;;4.47;1.63;;;;;;;;;;5073444;28;20075;-69
2023/07/20 09:20:48;;;;;;;5.40;1.75;;;;;;;;;;5073470;28;20440;-70
2023/07/20 09:23:13;;;;;;;5.55;1.75;;;;;;;;;;5055326;28;20020;-70
2023/07/20 09:25:40;;;;;;;6.88;2.08;;;;;;;;;;5072722;28;20032;-69
2023/07/20 09:28:05;;;;;;;5.25;2.42;;;;;;;;;;5072362;28;20025;-69
2023/07/20 09:30:31;;;;;;;4.68;2.05;;;;;;;;;;5071431;28;20397;-69
2023/07/20 09:32:56;;;;;;;6.43;2.03;;;;;;;;;;5051094;28;20029;-69
2023/07/20 09:35:22;;;;;;;4.57;1.83;;;;;;;;;;5034941;28;20025;-70
2023/07/20 09:38:00;;;;;;;4.32;1.80;;;;;;;;;;5036588;28;20033;-69
2023/07/20 09:40:26;;;;;;;3.80;2.08;;;;;;;;;;5053272;28;20025;-69
2023/07/20 09:42:59;;;;;;;4.93;1.50;;;;;;;;;;5056208;28;20032;-69
2023/07/20 09:45:28;;;;;;;6.28;1.70;;;;;;;;;;5056242;28;20025;-73
2023/07/20 09:48:03;;;;;;;5.72;1.83;;;;;;;;;;5054871;28;20028;-72
2023/07/20 09:50:28;;;;;;;5.85;1.73;;;;;;;;;;5050637;28;20031;-72
2023/07/20 09:52:54;;;;;;;4.85;1.85;;;;;;;;;;5053353;28;20029;-71
2023/07/20 09:55:20;;;;;;;6.05;1.83;;;;;;;;;;5034910;28;20398;-71
2023/07/20 09:57:46;;;;;;;5.65;1.65;;;;;;;;;;5051697;28;20024;-71
2023/07/20 10:00:13;;;;;;;7.15;2.35;;;;;;;;;;5052580;28;20033;-72
2023/07/20 10:02:45;;;;;;;9.50;1.77;;;;;;;;;;5052818;28;20028;-71
2023/07/20 10:05:14;;;;;;;5.15;1.83;;;;;;;;;;5056045;28;20031;-71
2023/07/20 10:07:50;;;;;;;5.07;1.90;;;;;;;;;;5072841;28;20027;-71
2023/07/20 10:10:17;;;;;;;7.30;2.10;;;;;;;;;;5045377;28;20028;-76
2023/07/20 10:12:42;;;;;;;6.40;1.83;;;;;;;;;;5054579;28;20036;-71
2023/07/20 10:15:12;;;;;;;3.75;1.70;;;;;;;;;;5054563;28;20028;-72
2023/07/20 10:17:41;;;;;;;3.92;1.58;;;;;;;;;;5051603;28;20035;-72
2023/07/20 10:20:08;;;;;;;10.57;2.20;;;;;;;;;;5034625;28;20025;-71
2023/07/20 10:22:35;;;;;;;8.55;2.10;;;;;;;;;;5047524;28;20035;-72
2023/07/20 10:25:01;;;;;;;8.13;1.92;;;;;;;;;;5052590;28;20029;-71
2023/07/20 10:27:26;;;;;;;4.68;2.33;;;;;;;;;;5060078;28;20027;-71
2023/07/20 10:29:53;;;;;;;6.85;1.45;;;;;;;;;;5056054;28;20048;-71
2023/07/20 10:32:19;;;;;;;5.18;1.48;;;;;;;;;;5037225;28;20031;-71
2023/07/20 10:34:51;;;;;;;5.00;1.58;;;;;;;;;;5018079;28;20029;-71
2023/07/20 10:37:49;;;;;;;6.35;1.92;;;;;;;;;;5061732;28;20021;-71
2023/07/20 10:40:28;;;;;;;5.57;1.65;;;;;;;;;;5072865;28;20028;-71
2023/07/20 10:43:01;;;;;;;7.75;1.50;;;;;;;;;;5051002;28;20028;-71
2023/07/20 10:45:38;;;;;;;7.35;2.13;;;;;;;;;;5056973;28;20021;-71
2023/07/20 10:48:15;;;;;;;6.43;2.13;;;;;;;;;;5052791;28;20025;-71
2023/07/20 10:50:41;;;;;;;3.25;1.70;;;;;;;;;;5046375;28;20029;-71
2023/07/20 10:53:15;;;;;;;6.35;1.67;;;;;;;;;;5038762;28;20560;-71
2023/07/20 10:55:41;;;;;;;7.45;1.70;;;;;;;;;;5055970;28;20033;-71
2023/07/20 10:58:14;;;;;;;7.75;1.90;;;;;;;;;;5056210;28;20021;-71
2023/07/20 11:00:57;;;;;;;6.30;1.58;;;;;;;;;;5037989;28;20029;-70
2023/07/20 11:03:29;;;;;;;6.72;2.17;;;;;;;;;;5076120;28;20025;-71
2023/07/20 11:05:56;;;;;;;6.45;1.60;;;;;;;;;;5037886;28;20021;-71
2023/07/20 11:08:41;;;;;;;6.80;1.83;;;;;;;;;;5056573;28;20056;-71
2023/07/20 11:11:27;;;;;;;5.78;1.60;;;;;;;;;;5075375;28;20481;-71
2023/07/20 11:14:07;;;;;;;4.72;2.35;;;;;;;;;;5054656;28;20044;-71
2023/07/20 11:16:41;;;;;;;4.63;1.80;;;;;;;;;;5037888;28;20573;-71
2023/07/20 11:19:17;;;;;;;4.57;1.83;;;;;;;;;;5055580;28;20035;-71
2023/07/20 11:21:45;;;;;;;3.67;1.70;;;;;;;;;;5055309;28;20036;-71
2023/07/20 11:24:11;;;;;;;3.65;1.65;;;;;;;;;;5037963;28;20024;-71
2023/07/20 11:26:41;;;;;;;2.97;1.38;;;;;;;;;;5038368;28;20025;-71
2023/07/20 11:29:06;;;;;;;4.60;1.55;;;;;;;;;;5055494;28;20028;-72
2023/07/20 11:31:35;;;;;;;3.75;1.52;;;;;;;;;;5057640;28;20375;-71
2023/07/20 11:34:00;;;;;;;5.03;1.77;;;;;;;;;;5055104;28;20537;-71
2023/07/20 11:36:26;;;;;;;5.15;1.52;;;;;;;;;;5054886;28;20108;-71
2023/07/20 11:38:51;;;;;;;4.30;1.63;;;;;;;;;;5054792;28;20025;-71
2023/07/20 11:41:16;;;;;;;3.60;1.40;;;;;;;;;;5037302;28;20017;-71
2023/07/20 11:43:42;;;;;;;4.70;1.90;;;;;;;;;;5057754;28;20027;-71
2023/07/20 11:46:07;;;;;;;3.83;1.63;;;;;;;;;;5055382;28;20098;-71
2023/07/20 11:48:32;;;;;;;7.05;1.67;;;;;;;;;;5054274;28;20065;-72
2023/07/20 11:50:58;;;;;;;8.80;2.55;;;;;;;;;;5057548;28;20021;-71
2023/07/20 11:53:24;;;;;;;3.60;1.58;;;;;;;;;;5037296;28;20579;-70
2023/07/20 11:55:49;;;;;;;5.90;1.70;;;;;;;;;;5044223;28;20036;-71
2023/07/20 11:58:16;;;;;;;4.47;1.95;;;;;;;;;;5055460;28;20020;-71
2023/07/20 12:00:44;;;;;;;7.07;1.77;;;;;;;;;;5050970;28;20530;-71
2023/07/20 12:03:11;;;;;;;4.15;1.60;;;;;;;;;;5055235;28;20029;-71
2023/07/20 12:05:38;;;;;;;4.50;1.45;;;;;;;;;;5036672;28;20021;-72
2023/07/20 12:08:03;;;;;;;7.65;1.50;;;;;;;;;;5053403;28;20174;-73
2023/07/20 12:10:29;;;;;;;3.90;1.60;;;;;;;;;;5054788;28;20067;-73
2023/07/20 12:13:01;;;;;;;5.88;1.60;;;;;;;;;;5059198;28;20375;-71
2023/07/20 12:15:29;;;;;;;3.75;1.30;;;;;;;;;;5055091;28;20390;-69
2023/07/20 12:17:56;;;;;;;4.68;1.50;;;;;;;;;;5054715;28;20377;-70
2023/07/20 12:20:32;;;;;;;3.78;1.50;;;;;;;;;;5064113;28;20409;-71
2023/07/20 12:23:02;;;;;;;4.22;1.55;;;;;;;;;;5056005;28;20056;-72
2023/07/20 12:25:39;;;;;;;3.80;1.40;;;;;;;;;;5040182;28;20119;-72
2023/07/20 12:28:12;;;;;;;2.45;1.20;;;;;;;;;;5036644;28;20509;-70
2023/07/20 12:30:38;;;;;;;2.88;1.30;;;;;;;;;;5057840;28;20028;-73
2023/07/20 12:33:04;;;;;;;2.30;1.10;;;;;;;;;;5066478;28;20025;-73
2023/07/20 12:35:30;;;;;;;3.40;1.70;;;;;;;;;;5074272;28;20393;-72
2023/07/20 12:37:55;;;;;;;3.80;1.65;;;;;;;;;;5052650;28;20021;-72
2023/07/20 12:40:21;;;;;;;4.53;1.95;;;;;;;;;;5054184;28;20021;-72
2023/07/20 12:42:46;;;;;;;3.53;1.27;;;;;;;;;;5065699;28;20100;-72
2023/07/20 12:45:11;;;;;;;6.80;3.50;;;;;;;;;;5073861;28;20081;-73
2023/07/20 12:47:36;;;;;;;3.00;1.38;;;;;;;;;;5073883;28;20028;-72
2023/07/20 12:50:04;;;;;;;3.97;1.60;;;;;;;;;;5062120;28;20108;-72
2023/07/20 12:52:29;;;;;;;5.00;1.52;;;;;;;;;;5054013;28;20061;-72
2023/07/20 12:54:54;;;;;;;2.17;1.40;;;;;;;;;;5056976;28;20496;-72
2023/07/20 12:57:20;;;;;;;4.53;1.50;;;;;;;;;;5074036;28;20025;-72
2023/07/20 12:59:45;;;;;;;3.25;1.52;;;;;;;;;;5073922;28;20035;-72
2023/07/20 13:02:10;;;;;;;4.32;1.60;;;;;;;;;;5055075;28;20532;-72
2023/07/20 13:04:36;;;;;;;3.97;1.85;;;;;;;;;;5059119;28;20024;-72
2023/07/20 13:07:01;;;;;;;5.03;1.67;;;;;;;;;;5073691;28;20024;-72
2023/07/20 13:09:26;;;;;;;4.78;1.55;;;;;;;;;;5072767;28;20534;-71
2023/07/20 13:11:52;;;;;;;5.60;2.03;;;;;;;;;;5070203;28;20028;-72
2023/07/20 13:14:17;;;;;;;2.97;1.60;;;;;;;;;;5073177;28;20051;-71
2023/07/20 13:16:43;;;;;;;8.82;1.92;;;;;;;;;;5055883;28;20112;-71
2023/07/20 13:19:08;;;;;;;4.07;1.67;;;;;;;;;;5073245;28;20100;-71
2023/07/20 13:21:33;;;;;;;3.75;1.50;;;;;;;;;;5070710;28;20021;-71
2023/07/20 13:23:58;;;;;;;6.82;1.70;;;;;;;;;;5061086;28;20067;-72
2023/07/20 13:26:24;;;;;;;5.88;2.00;;;;;;;;;;5066585;28;20031;-72
2023/07/20 13:28:49;;;;;;;3.35;1.90;;;;;;;;;;5065592;28;20025;-71
2023/07/20 13:31:17;;;;;;;3.20;1.83;;;;;;;;;;5072846;28;20031;-71
2023/07/20 13:33:42;;;;;;;6.28;1.75;;;;;;;;;;5055269;28;20104;-72
2023/07/20 13:36:07;;;;;;;3.30;1.50;;;;;;;;;;5053193;28;20104;-72
2023/07/20 13:38:33;;;;;;;5.10;1.63;;;;;;;;;;5055272;28;20371;-72
2023/07/20 13:40:58;;;;;;;4.68;1.40;;;;;;;;;;5035180;28;20025;-72
2023/07/20 13:43:23;;;;;;;4.55;1.70;;;;;;;;;;5062657;28;20404;-72
2023/07/20 13:45:49;;;;;;;3.55;1.75;;;;;;;;;;5072932;28;20025;-72
2023/07/20 13:48:14;;;;;;;3.08;2.03;;;;;;;;;;5070957;28;20025;-72
2023/07/20 13:50:40;;;;;;;5.63;1.80;;;;;;;;;;5072845;28;20016;-72
2023/07/20 13:53:05;;;;;;;8.32;1.85;;;;;;;;;;5053112;28;20059;-72
2023/07/20 13:55:33;;;;;;;4.30;1.60;;;;;;;;;;5053111;28;20020;-72
2023/07/20 13:57:58;;;;;;;5.03;1.85;;;;;;;;;;5034708;28;20048;-72
2023/07/20 14:00:26;;;;;;;3.67;1.95;;;;;;;;;;5065928;28;20503;-72
2023/07/20 14:02:51;;;;;;;5.32;1.90;;;;;;;;;;5072293;28;20117;-72
2023/07/20 14:05:17;;;;;;;3.67;1.60;;;;;;;;;;5068265;28;20048;-72
2023/07/20 14:07:43;;;;;;;4.82;1.60;;;;;;;;;;5072724;28;20078;-73
2023/07/20 14:10:08;;;;;;;4.70;1.63;;;;;;;;;;5071557;28;20500;-72
2023/07/20 14:12:34;;;;;;;4.88;1.75;;;;;;;;;;5052883;28;20035;-72
2023/07/20 14:14:59;;;;;;;4.15;1.52;;;;;;;;;;5052077;28;20032;-72
2023/07/20 14:17:24;;;;;;;2.58;1.40;;;;;;;;;;5055600;28;20020;-72
2023/07/20 14:19:51;;;;;;;2.33;1.55;;;;;;;;;;5056258;28;20036;-72
2023/07/20 14:22:16;;;;;;;2.53;1.92;;;;;;;;;;5058402;28;20032;-72
2023/07/20 14:24:41;;;;;;;3.40;1.52;;;;;;;;;;5070272;28;20032;-71
2023/07/20 14:27:06;;;;;;;4.68;1.70;;;;;;;;;;5059322;28;20028;-71
2023/07/20 14:29:32;;;;;;;3.75;1.92;;;;;;;;;;5060311;28;20032;-72
2023/07/20 14:31:58;;;;;;;3.47;1.45;;;;;;;;;;5072565;28;20052;-71
2023/07/20 14:34:23;;;;;;;5.15;1.20;;;;;;;;;;5079604;28;20051;-72
2023/07/20 14:36:49;;;;;;;1.90;1.30;;;;;;;;;;5066375;28;20025;-71
2023/07/20 14:39:15;;;;;;;4.35;1.40;;;;;;;;;;5060285;28;20030;-72